Time;durP1;ratioP1;P1;durP2;ratioP2;P2;SDS_P1;SDS_P2;PMS_P1;PMS_P2;Temp;Humidity;BMP_temperature;BMP_pressure;BME280_temperature;BME280_humidity;BME280_pressure;Samples;Min_cycle;Max_cycle;Signal;HPM_P1;HPM_P2
2022/08/30 00:01:02;;;;;;;7.67;4.23;;;;;;;13.67;100.00;101280.03;5023939;28;20567;-75
2022/08/30 00:03:30;;;;;;;5.70;4.20;;;;;;;13.69;100.00;101280.81;5022276;28;20245;-75
2022/08/30 00:05:57;;;;;;;5.63;4.57;;;;;;;13.75;100.00;101282.41;5020453;28;20225;-75
2022/08/30 00:08:23;;;;;;;7.93;5.00;;;;;;;13.74;100.00;101288.56;5023575;28;20201;-75
2022/08/30 00:10:50;;;;;;;6.53;4.80;;;;;;;13.80;100.00;101289.22;5023331;28;20197;-75
2022/08/30 00:13:18;;;;;;;6.63;4.13;;;;;;;13.87;100.00;101289.91;5026670;28;20231;-75
2022/08/30 00:15:46;;;;;;;5.43;4.00;;;;;;;13.80;100.00;101285.75;5029486;28;20209;-75
2022/08/30 00:18:14;;;;;;;5.70;4.23;;;;;;;13.81;100.00;101288.34;5026000;28;20696;-75
2022/08/30 00:20:42;;;;;;;8.20;3.93;;;;;;;13.83;100.00;101273.41;5026427;28;20219;-75
2022/08/30 00:23:09;;;;;;;7.60;4.10;;;;;;;13.83;100.00;101276.03;5027596;28;20217;-75
2022/08/30 00:25:35;;;;;;;5.87;4.30;;;;;;;13.76;100.00;101278.91;5026146;28;20203;-75
2022/08/30 00:28:02;;;;;;;6.03;4.10;;;;;;;13.71;100.00;101272.94;5023627;28;20202;-75
2022/08/30 00:30:28;;;;;;;5.27;4.10;;;;;;;13.73;100.00;101273.75;5028683;28;20216;-75
2022/08/30 00:32:55;;;;;;;5.67;4.27;;;;;;;13.62;100.00;101272.28;5025688;28;20440;-75
2022/08/30 00:35:22;;;;;;;6.50;4.03;;;;;;;13.66;100.00;101272.19;5025525;28;20495;-75
2022/08/30 00:37:51;;;;;;;7.47;4.40;;;;;;;13.69;100.00;101270.34;5029084;28;20211;-75
2022/08/30 00:40:19;;;;;;;5.97;3.87;;;;;;;13.62;100.00;101266.19;5024667;28;20208;-75
2022/08/30 00:42:47;;;;;;;4.67;3.63;;;;;;;13.55;100.00;101268.13;5022445;28;20618;-75
2022/08/30 00:45:17;;;;;;;6.07;4.20;;;;;;;13.44;100.00;101272.81;5025209;28;20245;-75
2022/08/30 00:47:43;;;;;;;6.27;4.53;;;;;;;13.46;100.00;101270.16;5028019;28;20514;-75
2022/08/30 00:50:12;;;;;;;5.03;4.03;;;;;;;13.48;100.00;101268.34;5024698;28;20579;-75
2022/08/30 00:52:40;;;;;;;6.27;4.40;;;;;;;13.49;100.00;101275.28;5023113;28;20695;-75
2022/08/30 00:55:09;;;;;;;4.63;3.90;;;;;;;13.45;100.00;101269.28;5023116;28;20656;-75
2022/08/30 00:57:36;;;;;;;6.87;4.00;;;;;;;13.34;100.00;101271.34;5020040;28;20222;-75
2022/08/30 01:00:05;;;;;;;6.03;4.20;;;;;;;13.35;100.00;101266.06;5026427;28;20745;-75
2022/08/30 01:02:32;;;;;;;5.63;4.20;;;;;;;13.30;100.00;101269.66;5026219;28;20671;-75
2022/08/30 01:05:01;;;;;;;4.80;3.90;;;;;;;13.29;100.00;101263.56;5026245;28;20223;-75
2022/08/30 01:07:28;;;;;;;4.87;3.80;;;;;;;13.20;100.00;101267.28;5024676;28;21991;-75
2022/08/30 01:09:54;;;;;;;5.43;4.10;;;;;;;13.20;100.00;101271.69;5026235;28;20212;-75
2022/08/30 01:12:22;;;;;;;6.30;4.00;;;;;;;13.16;100.00;101278.75;5026236;28;20196;-75
2022/08/30 01:14:49;;;;;;;6.83;4.30;;;;;;;13.14;100.00;101263.97;5026096;28;20864;-75
2022/08/30 01:17:16;;;;;;;4.27;3.53;;;;;;;13.12;100.00;101277.13;5024466;28;20203;-75
2022/08/30 01:19:49;;;;;;;5.57;4.13;;;;;;;13.17;100.00;101263.91;5008381;28;20317;-75
2022/08/30 01:22:24;;;;;;;4.47;3.77;;;;;;;13.11;100.00;101275.41;5021724;28;20208;-75
2022/08/30 01:24:54;;;;;;;5.87;4.00;;;;;;;12.98;100.00;101269.63;5024463;28;20203;-75
2022/08/30 01:27:21;;;;;;;5.40;3.83;;;;;;;13.02;100.00;101270.41;5022550;28;20708;-75
2022/08/30 01:29:49;;;;;;;5.10;4.10;;;;;;;12.88;100.00;101276.00;5024687;28;20209;-75
2022/08/30 01:32:17;;;;;;;4.17;3.57;;;;;;;12.92;100.00;101271.53;5026844;28;21116;-75
2022/08/30 01:34:44;;;;;;;4.67;3.87;;;;;;;12.84;100.00;101269.97;5023287;28;20232;-75
2022/08/30 01:37:10;;;;;;;7.13;4.37;;;;;;;12.72;100.00;101269.41;5024877;28;20196;-75
2022/08/30 01:39:37;;;;;;;7.37;4.37;;;;;;;12.75;100.00;101275.47;5024724;28;20211;-75
2022/08/30 01:42:05;;;;;;;5.00;3.93;;;;;;;12.77;100.00;101275.38;5024508;28;20208;-75
2022/08/30 01:44:32;;;;;;;4.80;3.53;;;;;;;12.77;100.00;101278.00;5023390;28;20216;-75
2022/08/30 01:46:58;;;;;;;5.20;3.63;;;;;;;12.71;100.00;101272.94;5023444;28;20227;-75
2022/08/30 01:49:24;;;;;;;5.53;4.00;;;;;;;12.56;100.00;101280.28;5024686;28;20207;-75
2022/08/30 01:51:51;;;;;;;7.83;4.17;;;;;;;12.62;100.00;101274.88;5025810;28;20619;-75
2022/08/30 01:54:17;;;;;;;5.77;3.87;;;;;;;12.62;100.00;101274.03;5024345;28;20617;-75
2022/08/30 01:56:43;;;;;;;5.10;4.03;;;;;;;12.56;100.00;101285.50;5007121;28;20227;-75
2022/08/30 01:59:11;;;;;;;4.83;3.83;;;;;;;12.44;100.00;101283.19;5025116;28;20204;-75
2022/08/30 02:01:38;;;;;;;4.73;3.67;;;;;;;12.41;100.00;101286.72;5024651;28;20205;-75
2022/08/30 02:04:05;;;;;;;5.07;3.93;;;;;;;12.45;100.00;101288.38;5020793;28;20220;-75
2022/08/30 02:06:32;;;;;;;4.40;3.67;;;;;;;12.45;100.00;101274.41;5024174;28;20421;-75
2022/08/30 02:08:59;;;;;;;4.50;3.67;;;;;;;12.39;100.00;101279.81;5026845;28;20204;-75
2022/08/30 02:11:25;;;;;;;4.63;3.30;;;;;;;12.29;100.00;101287.00;5025799;28;20200;-75
2022/08/30 02:13:52;;;;;;;6.23;3.80;;;;;;;12.28;100.00;101285.28;5021878;28;20223;-75
2022/08/30 02:16:22;;;;;;;4.43;3.13;;;;;;;12.42;100.00;101282.34;5025055;28;20673;-75
2022/08/30 02:18:49;;;;;;;4.47;3.60;;;;;;;12.38;100.00;101276.31;5023046;28;20198;-75
2022/08/30 02:21:16;;;;;;;4.33;3.40;;;;;;;12.25;100.00;101275.75;5023066;28;20241;-75
2022/08/30 02:23:43;;;;;;;5.53;3.37;;;;;;;12.26;100.00;101274.84;5023496;28;20226;-75
2022/08/30 02:26:10;;;;;;;3.73;3.17;;;;;;;12.19;100.00;101273.28;5021824;28;20219;-75
2022/08/30 02:28:37;;;;;;;3.90;3.43;;;;;;;12.17;100.00;101274.19;5025922;28;20298;-75
2022/08/30 02:31:03;;;;;;;3.97;3.10;;;;;;;12.09;100.00;101277.00;5021519;28;20198;-75
2022/08/30 02:33:31;;;;;;;4.80;3.57;;;;;;;12.06;100.00;101275.28;5024549;28;20228;-75
2022/08/30 02:35:58;;;;;;;4.00;3.30;;;;;;;12.10;100.00;101276.06;5022870;28;20769;-76
2022/08/30 02:38:25;;;;;;;4.20;3.63;;;;;;;12.16;100.00;101280.34;5025792;28;22176;-75
2022/08/30 02:40:51;;;;;;;3.93;3.17;;;;;;;12.08;100.00;101275.25;5023070;28;20247;-75
2022/08/30 02:43:19;;;;;;;4.47;3.60;;;;;;;12.16;100.00;101280.34;5023860;28;20226;-75
2022/08/30 02:45:45;;;;;;;3.63;3.10;;;;;;;12.15;100.00;101278.59;5022911;28;20231;-75
2022/08/30 02:48:11;;;;;;;4.17;3.30;;;;;;;12.16;100.00;101277.72;5022003;28;20201;-75
2022/08/30 02:50:41;;;;;;;4.20;3.37;;;;;;;12.13;100.00;101279.47;5009977;28;20233;-75
2022/08/30 02:53:07;;;;;;;4.10;3.20;;;;;;;12.14;100.00;101285.59;5024517;28;20249;-75
2022/08/30 02:55:34;;;;;;;4.23;3.10;;;;;;;12.06;100.00;101287.50;5024255;28;20215;-75
2022/08/30 02:58:00;;;;;;;4.13;3.37;;;;;;;12.01;100.00;101282.38;5021557;28;20706;-75
2022/08/30 03:00:26;;;;;;;4.57;3.03;;;;;;;11.92;100.00;101283.44;5023636;28;20199;-75
2022/08/30 03:02:53;;;;;;;4.70;3.30;;;;;;;12.00;100.00;101285.88;5023913;28;20243;-75
2022/08/30 03:05:19;;;;;;;4.33;3.17;;;;;;;12.00;100.00;101288.50;5022078;28;20204;-75
2022/08/30 03:07:47;;;;;;;6.17;2.80;;;;;;;11.99;100.00;101280.69;5023304;28;20438;-75
2022/08/30 03:10:15;;;;;;;4.10;3.03;;;;;;;12.05;100.00;101284.03;5023808;28;20198;-75
2022/08/30 03:12:42;;;;;;;4.07;3.10;;;;;;;11.97;100.00;101287.72;5021772;28;20315;-75
2022/08/30 03:15:12;;;;;;;4.17;3.07;;;;;;;11.96;100.00;101286.84;5038482;23;20558;-72
2022/08/30 03:17:39;;;;;;;3.77;2.80;;;;;;;11.95;100.00;101286.88;5024012;28;20196;-73
2022/08/30 03:20:07;;;;;;;5.10;3.47;;;;;;;12.01;100.00;101281.50;5021958;28;20212;-72
2022/08/30 03:22:34;;;;;;;4.23;3.17;;;;;;;11.96;100.00;101280.75;5022152;28;20212;-73
2022/08/30 03:25:01;;;;;;;4.70;3.67;;;;;;;11.88;100.00;101292.19;5019091;28;20231;-72
2022/08/30 03:27:29;;;;;;;5.03;3.90;;;;;;;11.96;100.00;101299.94;5005568;28;20215;-73
2022/08/30 03:29:56;;;;;;;5.23;3.37;;;;;;;11.85;100.00;101294.00;5023631;28;20208;-73
2022/08/30 03:32:22;;;;;;;4.23;3.17;;;;;;;11.89;100.00;101303.50;5024155;28;20221;-73
2022/08/30 03:34:49;;;;;;;4.73;3.67;;;;;;;11.61;100.00;101297.97;5022525;28;20515;-76
2022/08/30 03:37:15;;;;;;;5.27;3.93;;;;;;;11.56;100.00;101296.31;5023660;28;20202;-73
2022/08/30 03:39:44;;;;;;;5.63;3.83;;;;;;;11.81;100.00;101300.19;5021422;28;20203;-72
2022/08/30 03:42:12;;;;;;;4.67;3.57;;;;;;;11.86;100.00;101299.22;5020862;28;20202;-74
2022/08/30 03:44:38;;;;;;;5.63;3.80;;;;;;;11.85;100.00;101299.25;5021491;28;20222;-73
2022/08/30 03:47:06;;;;;;;4.27;3.37;;;;;;;11.83;100.00;101308.88;5020607;28;20222;-73
2022/08/30 03:49:32;;;;;;;6.07;3.90;;;;;;;11.92;100.00;101306.09;5025056;28;20210;-73
2022/08/30 03:51:58;;;;;;;6.37;3.63;;;;;;;11.74;100.00;101312.53;5021261;28;20565;-73
2022/08/30 03:54:25;;;;;;;8.37;4.13;;;;;;;11.85;100.00;101318.38;5023687;28;20216;-73
2022/08/30 03:56:51;;;;;;;5.43;3.80;;;;;;;11.87;100.00;101320.97;5014717;28;20277;-73
2022/08/30 03:59:19;;;;;;;6.07;3.97;;;;;;;12.00;100.00;101319.00;5020894;28;20234;-74
2022/08/30 04:01:46;;;;;;;7.67;4.47;;;;;;;12.05;100.00;101322.41;5023458;28;20196;-73
2022/08/30 04:04:13;;;;;;;7.77;4.80;;;;;;;12.04;100.00;101323.28;5017508;28;20995;-71
2022/08/30 04:06:39;;;;;;;11.00;5.23;;;;;;;12.01;100.00;101324.19;5024158;28;20281;-73
2022/08/30 04:09:06;;;;;;;8.90;4.83;;;;;;;12.05;100.00;101320.63;5022106;28;20657;-73
2022/08/30 04:11:33;;;;;;;10.60;4.27;;;;;;;12.00;100.00;101325.09;4998634;28;20204;-73
2022/08/30 04:13:59;;;;;;;7.67;5.20;;;;;;;12.10;100.00;101320.50;4999454;28;20588;-73
2022/08/30 04:16:27;;;;;;;8.73;5.10;;;;;;;12.11;100.00;101323.09;5023550;28;20207;-74
2022/08/30 04:18:54;;;;;;;10.17;5.50;;;;;;;12.10;100.00;101326.63;5021692;28;20660;-73
2022/08/30 04:21:20;;;;;;;8.87;5.30;;;;;;;12.12;100.00;101327.44;5019787;28;20668;-74
2022/08/30 04:23:46;;;;;;;14.60;5.50;;;;;;;12.09;100.00;101329.25;5020639;28;20230;-74
2022/08/30 04:26:13;;;;;;;8.27;4.90;;;;;;;12.13;100.00;101328.28;5019653;28;20258;-73
2022/08/30 04:28:39;;;;;;;11.00;5.13;;;;;;;12.10;100.00;101325.75;5019962;28;20208;-73
2022/08/30 04:31:08;;;;;;;11.90;6.10;;;;;;;12.12;100.00;101329.22;5020441;28;20290;-73
2022/08/30 04:33:35;;;;;;;9.97;5.20;;;;;;;12.17;100.00;101334.31;5018754;28;20223;-73
2022/08/30 04:36:04;;;;;;;9.70;5.50;;;;;;;12.18;100.00;101329.06;5018209;28;20600;-73
2022/08/30 04:38:31;;;;;;;9.30;5.17;;;;;;;12.37;100.00;101339.13;5016033;28;20196;-73
2022/08/30 04:40:58;;;;;;;9.37;5.17;;;;;;;12.29;100.00;101336.66;5011443;28;20211;-73
2022/08/30 04:43:25;;;;;;;8.77;5.47;;;;;;;12.25;100.00;101341.09;5020342;28;20223;-73
2022/08/30 04:45:53;;;;;;;11.23;5.60;;;;;;;12.23;100.00;101342.03;5009980;28;20208;-73
2022/08/30 04:48:21;;;;;;;8.10;5.33;;;;;;;12.45;100.00;101345.03;5020311;28;20583;-72
2022/08/30 04:50:48;;;;;;;12.53;6.00;;;;;;;12.47;100.00;101343.22;5020531;28;20216;-73
2022/08/30 04:53:15;;;;;;;7.77;5.07;;;;;;;12.41;100.00;101351.22;5020259;28;20561;-73
2022/08/30 04:55:43;;;;;;;11.10;5.43;;;;;;;12.41;100.00;101343.38;5001171;28;20196;-73
2022/08/30 04:58:10;;;;;;;10.57;5.07;;;;;;;12.52;100.00;101351.00;5021008;28;20192;-72
2022/08/30 05:00:37;;;;;;;9.23;5.23;;;;;;;12.46;100.00;101347.63;5023169;28;20204;-73
2022/08/30 05:03:03;;;;;;;13.70;7.20;;;;;;;12.52;100.00;101351.84;5022165;28;20200;-73
2022/08/30 05:05:39;;;;;;;9.47;5.77;;;;;;;12.52;100.00;101354.47;5019253;28;20193;-72
2022/08/30 05:08:07;;;;;;;8.70;5.80;;;;;;;12.61;100.00;101358.63;5017841;28;20218;-73
2022/08/30 05:10:34;;;;;;;14.80;8.57;;;;;;;12.66;100.00;101356.75;5027362;28;20207;-73
2022/08/30 05:13:00;;;;;;;15.43;9.10;;;;;;;12.72;100.00;101355.75;5028001;28;20229;-73
2022/08/30 05:15:27;;;;;;;12.50;8.00;;;;;;;12.79;100.00;101359.97;5023236;28;20608;-72
2022/08/30 05:17:53;;;;;;;17.63;7.90;;;;;;;12.89;100.00;101358.84;5025226;28;20193;-73
2022/08/30 05:20:20;;;;;;;13.53;5.83;;;;;;;12.97;100.00;101363.91;5023024;28;20204;-73
2022/08/30 05:22:48;;;;;;;9.90;5.27;;;;;;;12.87;100.00;101364.13;5008215;28;20523;-74
2022/08/30 05:25:18;;;;;;;11.53;6.57;;;;;;;12.97;100.00;101367.38;5019914;28;20228;-74
2022/08/30 05:27:45;;;;;;;12.50;6.53;;;;;;;13.07;100.00;101368.00;4995272;28;20228;-73
2022/08/30 05:30:12;;;;;;;11.77;6.17;;;;;;;13.05;100.00;101373.28;5017668;28;20643;-73
2022/08/30 05:32:39;;;;;;;10.63;6.30;;;;;;;13.22;100.00;101372.00;5024377;28;20204;-72
2022/08/30 05:35:06;;;;;;;20.27;6.30;;;;;;;13.35;100.00;101370.81;5018596;28;21564;-74
2022/08/30 05:37:33;;;;;;;8.60;5.50;;;;;;;13.44;100.00;101374.97;5024954;28;20199;-73
2022/08/30 05:39:59;;;;;;;11.83;6.80;;;;;;;13.46;100.00;101381.03;5008283;28;20675;-74
2022/08/30 05:42:27;;;;;;;21.17;6.83;;;;;;;13.45;100.00;101384.53;5025845;28;20211;-73
2022/08/30 05:44:54;;;;;;;15.60;6.87;;;;;;;13.47;100.00;101380.09;5025217;28;20239;-73
2022/08/30 05:47:21;;;;;;;8.77;5.67;;;;;;;13.51;100.00;101376.53;5021037;28;20410;-73
2022/08/30 05:49:48;;;;;;;12.37;6.30;;;;;;;13.53;100.00;101382.59;5007788;28;20208;-72
2022/08/30 05:52:16;;;;;;;14.53;6.20;;;;;;;13.53;100.00;101382.59;5025158;28;20207;-74
2022/08/30 05:54:43;;;;;;;8.90;5.37;;;;;;;13.63;100.00;101388.41;5020433;28;20251;-72
2022/08/30 05:57:10;;;;;;;11.33;6.10;;;;;;;13.69;100.00;101383.03;5023075;28;20206;-74
2022/08/30 05:59:38;;;;;;;12.77;6.63;;;;;;;13.77;100.00;101381.06;5016683;28;20753;-74
2022/08/30 06:02:06;;;;;;;11.03;5.93;;;;;;;13.75;100.00;101385.47;5026307;28;20606;-72
2022/08/30 06:04:32;;;;;;;17.37;7.10;;;;;;;13.88;100.00;101388.63;5027026;28;20221;-72
2022/08/30 06:06:58;;;;;;;10.60;5.37;;;;;;;13.98;100.00;101386.59;5024182;28;20230;-74
2022/08/30 06:09:25;;;;;;;11.20;6.30;;;;;;;14.15;100.00;101400.09;5023660;28;20214;-73
2022/08/30 06:11:51;;;;;;;11.17;5.87;;;;;;;14.29;100.00;101390.97;5026453;28;20203;-72
2022/08/30 06:14:17;;;;;;;9.23;5.57;;;;;;;14.29;100.00;101386.56;5026696;28;20617;-73
2022/08/30 06:16:46;;;;;;;14.87;6.47;;;;;;;14.36;100.00;101389.88;5023468;28;21225;-73
2022/08/30 06:19:14;;;;;;;13.20;6.03;;;;;;;14.43;100.00;101387.94;5028612;28;20287;-72
2022/08/30 06:21:41;;;;;;;12.73;6.33;;;;;;;14.55;100.00;101380.56;5029481;28;20200;-72
2022/08/30 06:24:10;;;;;;;16.23;7.33;;;;;;;14.64;100.00;101387.31;5007749;28;20486;-73
2022/08/30 06:26:39;;;;;;;12.40;6.70;;;;;;;14.72;100.00;101382.69;5024657;28;20204;-73
2022/08/30 06:29:06;;;;;;;14.73;6.17;;;;;;;14.76;100.00;101383.47;5023426;28;20239;-73
2022/08/30 06:31:32;;;;;;;14.43;7.43;;;;;;;14.81;100.00;101386.78;5019390;28;20204;-72
2022/08/30 06:34:00;;;;;;;15.07;7.03;;;;;;;14.79;100.00;101383.34;5010495;28;20224;-74
2022/08/30 06:36:27;;;;;;;14.57;6.93;;;;;;;14.93;100.00;101380.28;5022089;28;20218;-73
2022/08/30 06:38:56;;;;;;;15.43;7.60;;;;;;;15.07;100.00;101385.06;5011225;28;20200;-73
2022/08/30 06:41:24;;;;;;;17.23;7.37;;;;;;;15.13;100.00;101383.13;5022732;28;20399;-73
2022/08/30 06:43:51;;;;;;;15.60;7.10;;;;;;;15.22;100.00;101376.69;5023190;28;20584;-74
2022/08/30 06:46:20;;;;;;;15.67;6.90;;;;;;;15.33;100.00;101374.56;5024438;28;20204;-73
2022/08/30 06:48:47;;;;;;;18.60;7.23;;;;;;;15.43;100.00;101377.72;5026744;28;20438;-73
2022/08/30 06:51:15;;;;;;;13.27;7.40;;;;;;;15.43;100.00;101375.09;5025548;28;20200;-73
2022/08/30 06:53:41;;;;;;;16.97;8.37;;;;;;;15.55;100.00;101381.72;5023618;28;20588;-73
2022/08/30 06:56:11;;;;;;;15.03;7.47;;;;;;;15.70;100.00;101378.53;5020086;28;20326;-73
2022/08/30 06:58:39;;;;;;;16.13;7.57;;;;;;;15.76;100.00;101374.88;5022165;28;20215;-74
2022/08/30 07:01:06;;;;;;;14.63;6.63;;;;;;;15.84;100.00;101375.44;5014911;28;20235;-74
2022/08/30 07:03:34;;;;;;;15.83;7.53;;;;;;;15.97;100.00;101386.38;5024447;28;20227;-73
2022/08/30 07:06:00;;;;;;;10.43;6.33;;;;;;;16.09;100.00;101383.31;5022652;28;20661;-74
2022/08/30 07:08:28;;;;;;;13.77;7.23;;;;;;;15.97;100.00;101382.88;5022648;28;20593;-72
2022/08/30 07:10:54;;;;;;;13.33;7.23;;;;;;;15.96;100.00;101375.91;5023471;28;20204;-73
2022/08/30 07:13:22;;;;;;;11.87;6.50;;;;;;;16.08;100.00;101378.09;5023726;28;20204;-73
2022/08/30 07:15:49;;;;;;;13.10;6.97;;;;;;;16.09;100.00;101382.44;5024034;28;20202;-74
2022/08/30 07:21:06;;;;;;;12.90;7.67;;;;;;;16.32;100.00;101389.44;5023997;28;20199;-73
2022/08/30 07:23:34;;;;;;;14.83;7.17;;;;;;;16.44;100.00;101388.13;5023442;28;20435;-74
2022/08/30 07:26:03;;;;;;;13.37;7.07;;;;;;;16.49;100.00;101390.59;5019559;28;20664;-74
2022/08/30 07:28:30;;;;;;;11.63;6.87;;;;;;;16.52;100.00;101391.34;5019542;28;20238;-74
2022/08/30 07:30:56;;;;;;;12.70;6.73;;;;;;;16.59;100.00;101386.69;5023771;28;20204;-74
2022/08/30 07:33:23;;;;;;;9.77;6.23;;;;;;;16.54;100.00;101396.53;5005740;28;20208;-74
2022/08/30 07:35:49;;;;;;;9.90;5.57;;;;;;;16.57;100.00;101405.19;5006058;28;20495;-74
2022/08/30 07:38:15;;;;;;;10.73;6.03;;;;;;;16.67;100.00;101405.66;5030223;28;20199;-74
2022/08/30 07:40:43;;;;;;;11.37;6.07;;;;;;;16.84;100.00;101402.41;5022174;28;20200;-74
2022/08/30 07:43:10;;;;;;;9.23;5.80;;;;;;;17.08;100.00;101410.22;5022223;28;20279;-74
2022/08/30 07:45:36;;;;;;;10.53;6.17;;;;;;;17.16;100.00;101416.88;5021725;28;20668;-74
2022/08/30 07:48:04;;;;;;;11.37;7.23;;;;;;;17.14;100.00;101423.16;5024436;28;20850;-73
2022/08/30 07:50:30;;;;;;;11.90;7.00;;;;;;;17.29;100.00;101419.00;4999497;28;20216;-73
2022/08/30 07:52:57;;;;;;;9.33;5.87;;;;;;;17.42;100.00;101417.59;5020574;28;20622;-72
2022/08/30 07:55:23;;;;;;;9.17;6.13;;;;;;;17.58;100.00;101418.66;5003393;28;20595;-73
2022/08/30 07:57:51;;;;;;;9.70;6.10;;;;;;;17.69;100.00;101418.19;5016996;28;20201;-74
2022/08/30 08:00:18;;;;;;;10.60;6.17;;;;;;;17.57;100.00;101421.34;5021145;28;20215;-73
2022/08/30 08:02:44;;;;;;;8.63;5.90;;;;;;;17.69;100.00;101427.88;5020001;28;20196;-73
2022/08/30 08:05:13;;;;;;;10.17;6.20;;;;;;;17.89;100.00;101420.00;5019676;28;20216;-73
2022/08/30 08:07:39;;;;;;;11.07;6.67;;;;;;;17.90;100.00;101428.75;5023066;28;20695;-73
2022/08/30 08:10:07;;;;;;;9.43;5.80;;;;;;;18.07;100.00;101428.88;5023118;28;20200;-73
2022/08/30 08:12:35;;;;;;;9.40;5.80;;;;;;;18.02;100.00;101433.50;5017732;28;20287;-73
2022/08/30 08:15:03;;;;;;;9.23;6.30;;;;;;;18.17;100.00;101430.16;5021660;28;20228;-73
2022/08/30 08:17:30;;;;;;;10.77;6.67;;;;;;;18.29;100.00;101435.81;5021609;28;20500;-73
2022/08/30 08:19:56;;;;;;;10.13;6.63;;;;;;;18.32;100.00;101428.59;5023194;28;20246;-73
2022/08/30 08:22:22;;;;;;;8.27;5.77;;;;;;;18.29;100.00;101435.81;5023327;28;20206;-73
2022/08/30 08:24:49;;;;;;;8.90;5.83;;;;;;;18.21;100.00;101428.25;5021585;28;20230;-73
2022/08/30 08:27:15;;;;;;;8.40;6.03;;;;;;;18.26;100.00;101430.69;5006016;28;20204;-73
2022/08/30 08:29:42;;;;;;;9.80;5.97;;;;;;;18.25;100.00;101429.81;5003079;28;20211;-73
2022/08/30 08:32:09;;;;;;;8.03;5.53;;;;;;;18.19;100.00;101434.50;5021874;28;20200;-73
2022/08/30 08:34:36;;;;;;;8.10;6.00;;;;;;;18.16;100.00;101425.81;5024229;28;20228;-73
2022/08/30 08:37:03;;;;;;;8.63;6.27;;;;;;;18.21;100.00;101432.69;5024431;28;20204;-73
2022/08/30 08:39:29;;;;;;;10.63;6.60;;;;;;;18.31;100.00;101439.22;5024906;28;20198;-73
2022/08/30 08:42:04;;;;;;;9.80;6.53;;;;;;;18.45;100.00;101441.22;5023585;28;20210;-73
2022/08/30 08:44:46;;;;;;;9.57;6.37;;;;;;;18.40;100.00;101446.75;5021650;28;20230;-72
2022/08/30 08:47:17;;;;;;;9.17;6.53;;;;;;;18.43;100.00;101440.44;5010028;28;20676;-74
2022/08/30 08:49:46;;;;;;;11.57;6.93;;;;;;;18.48;100.00;101441.09;5020627;28;20693;-72
2022/08/30 08:55:09;;;;;;;9.40;6.00;;;;;;;18.33;100.00;101448.81;5028128;28;20679;-73
2022/08/30 08:57:36;;;;;;;9.63;6.20;;;;;;;18.35;100.00;101444.31;5025178;28;20196;-72
2022/08/30 09:00:04;;;;;;;11.10;7.80;;;;;;;18.49;100.00;101437.53;5010438;28;20259;-73
2022/08/30 09:02:39;;;;;;;10.10;6.50;;;;;;;18.61;100.00;101433.44;5027156;28;20934;-73
2022/08/30 09:05:06;;;;;;;11.73;7.23;;;;;;;18.77;100.00;101429.19;5024144;28;20212;-73
2022/08/30 09:07:37;;;;;;;11.17;7.90;;;;;;;18.92;100.00;101432.88;5009213;28;20215;-73
2022/08/30 09:10:05;;;;;;;10.47;7.37;;;;;;;18.99;100.00;101429.00;5026450;28;20209;-73
2022/08/30 09:12:31;;;;;;;9.33;6.37;;;;;;;19.14;100.00;101432.69;5024560;28;20206;-73
2022/08/30 09:15:02;;;;;;;9.93;6.30;;;;;;;19.37;100.00;101446.56;5026905;28;20231;-72
2022/08/30 09:17:29;;;;;;;7.83;5.80;;;;;;;19.48;100.00;101442.44;5009084;28;20655;-73
2022/08/30 09:20:01;;;;;;;7.20;5.30;;;;;;;19.64;100.00;101436.38;5025851;28;20207;-73
2022/08/30 09:22:33;;;;;;;7.33;5.77;;;;;;;19.81;100.00;101433.75;5027293;28;20688;-73
2022/08/30 09:25:02;;;;;;;8.33;5.93;;;;;;;20.04;100.00;101443.13;5026686;28;20224;-73
2022/08/30 09:27:33;;;;;;;8.70;5.70;;;;;;;20.29;100.00;101443.59;5025542;28;20211;-73
2022/08/30 09:30:04;;;;;;;7.73;5.00;;;;;;;20.30;100.00;101432.94;5024907;28;20204;-73
2022/08/30 09:32:37;;;;;;;4.90;3.15;;;;;;;20.31;100.00;101439.06;5026865;28;20204;-72
2022/08/30 09:35:09;;;;;;;4.00;3.00;;;;;;;20.27;100.00;101448.13;5024644;28;20223;-73
2022/08/30 09:37:38;;;;;;;4.68;3.75;;;;;;;20.13;100.00;101439.13;5002705;28;20215;-72
2022/08/30 09:40:14;;;;;;;3.97;3.33;;;;;;;20.00;100.00;101438.94;5023162;28;20208;-73
2022/08/30 09:42:42;;;;;;;5.97;2.90;;;;;;;19.94;100.00;101436.59;5021956;28;20203;-72
2022/08/30 09:45:27;;;;;;;3.45;2.90;;;;;;;19.66;100.00;101435.38;5021975;28;20212;-73
2022/08/30 09:47:54;;;;;;;6.25;4.13;;;;;;;19.53;100.00;101433.44;5022593;28;20552;-73
2022/08/30 09:50:22;;;;;;;5.57;4.00;;;;;;;19.42;100.00;101439.28;5026467;28;20195;-73
2022/08/30 09:53:00;;;;;;;4.55;3.95;;;;;;;19.22;100.00;101437.59;5023311;28;20211;-73
2022/08/30 09:55:48;;;;;;;5.80;4.60;;;;;;;19.36;100.00;101431.63;5023408;28;20627;-73
2022/08/30 09:58:22;;;;;;;6.10;4.27;;;;;;;19.65;100.00;101438.09;5024458;28;20196;-72
2022/08/30 10:00:56;;;;;;;6.47;4.70;;;;;;;19.98;100.00;101439.94;5022911;28;20675;-72
2022/08/30 10:03:29;;;;;;;5.47;3.53;;;;;;;20.17;100.00;101439.81;5023661;28;20191;-72
2022/08/30 10:06:06;;;;;;;4.73;3.53;;;;;;;20.31;100.00;101442.56;5020044;28;20211;-73
2022/08/30 10:08:46;;;;;;;3.13;2.30;;;;;;;20.31;100.00;101441.72;5021668;28;20215;-73
2022/08/30 10:11:19;;;;;;;3.38;2.78;;;;;;;20.34;100.00;101438.91;5022413;28;20196;-73
2022/08/30 10:14:00;;;;;;;3.53;2.33;;;;;;;20.48;100.00;101448.75;5023026;28;20231;-72
2022/08/30 10:16:40;;;;;;;4.05;3.08;;;;;;;20.34;100.00;101444.22;5024221;28;20204;-73
2022/08/30 10:19:18;;;;;;;3.47;2.60;;;;;;;20.19;100.00;101444.09;5019411;28;20222;-73
2022/08/30 10:21:51;;;;;;;5.32;3.40;;;;;;;20.01;100.00;101443.25;5021627;28;20196;-73
2022/08/30 10:24:23;;;;;;;3.92;3.10;;;;;;;19.88;100.00;101438.72;5021554;28;20227;-73
2022/08/30 10:26:54;;;;;;;3.13;2.70;;;;;;;19.97;100.00;101441.72;5017420;28;20204;-73
2022/08/30 10:29:25;;;;;;;2.90;2.60;;;;;;;19.98;100.00;101439.94;5022252;28;20239;-72
2022/08/30 10:31:56;;;;;;;3.50;2.60;;;;;;;20.00;100.00;101438.09;5001717;28;20704;-73
2022/08/30 10:34:27;;;;;;;3.45;2.67;;;;;;;19.98;100.00;101443.44;5024266;28;21037;-73
2022/08/30 10:37:00;;;;;;;3.75;2.63;;;;;;;19.81;100.00;101440.84;5007177;28;20204;-72
2022/08/30 10:39:31;;;;;;;2.95;2.63;;;;;;;19.94;100.00;101446.31;5025224;28;20215;-73
2022/08/30 10:42:05;;;;;;;2.50;2.20;;;;;;;19.92;100.00;101441.13;5022157;28;20200;-72
2022/08/30 10:44:37;;;;;;;4.20;2.40;;;;;;;20.02;100.00;101430.91;5018358;28;20223;-73
2022/08/30 10:47:17;;;;;;;4.78;3.22;;;;;;;19.97;100.00;101430.28;5021680;28;20279;-72
2022/08/30 10:49:45;;;;;;;3.00;2.50;;;;;;;19.96;100.00;101425.94;5018014;28;20611;-73
2022/08/30 10:52:23;;;;;;;3.92;3.30;;;;;;;20.07;100.00;101426.22;5005942;28;20204;-73
2022/08/30 10:54:52;;;;;;;3.53;2.90;;;;;;;20.46;100.00;101422.34;5016573;28;20736;-72
2022/08/30 10:57:19;;;;;;;3.67;2.83;;;;;;;20.69;100.00;101422.91;5023340;28;20203;-72
2022/08/30 10:59:51;;;;;;;3.15;2.55;;;;;;;20.71;100.00;101426.31;5023372;28;20196;-73
2022/08/30 11:02:47;;;;;;;3.10;2.42;;;;;;;20.66;100.00;101431.00;5006829;28;20207;-72
2022/08/30 11:05:31;;;;;;;3.15;2.85;;;;;;;20.78;100.00;101432.97;5013672;28;20561;-73
2022/08/30 11:08:09;;;;;;;3.05;2.30;;;;;;;20.81;100.00;101430.16;5023528;28;20200;-72
2022/08/30 11:10:50;;;;;;;2.72;2.40;;;;;;;20.62;100.00;101430.34;5026447;28;20207;-72
2022/08/30 11:13:22;;;;;;;2.90;2.55;;;;;;;20.69;100.00;101420.25;5020615;28;20581;-73
2022/08/30 11:15:56;;;;;;;3.25;2.95;;;;;;;20.80;100.00;101417.84;5023316;28;20200;-72
2022/08/30 11:18:24;;;;;;;2.78;2.13;;;;;;;20.84;100.00;101418.53;5022793;28;20282;-73
2022/08/30 11:20:53;;;;;;;3.13;2.40;;;;;;;20.84;100.00;101416.72;5022123;28;20203;-72
2022/08/30 11:23:34;;;;;;;2.60;2.40;;;;;;;20.92;100.00;101421.59;5025798;28;20191;-72
2022/08/30 11:26:03;;;;;;;2.38;2.10;;;;;;;20.98;100.00;101422.09;5023397;28;20199;-72